Time;durP1;ratioP1;P1;durP2;ratioP2;P2;SDS_P1;SDS_P2;PMS_P1;PMS_P2;Temp;Humidity;BMP_temperature;BMP_pressure;BME280_temperature;BME280_humidity;BME280_pressure;Samples;Min_cycle;Max_cycle;Signal;HPM_P1;HPM_P2
2021/09/30 00:01:51;;;;;;;6.30;3.83;;;;;;;7.01;80.60;101012.75;8694476;33;20231;-74
2021/09/30 00:06:56;;;;;;;7.28;4.15;;;;;;;7.08;80.46;101026.66;8719530;33;20295;-75
2021/09/30 00:12:05;;;;;;;5.15;4.20;;;;;;;6.92;80.87;101029.31;8720088;33;20503;-75
2021/09/30 00:17:32;;;;;;;4.45;3.70;;;;;;;6.97;80.43;101037.94;8719700;33;20483;-74
2021/09/30 00:48:00;;;;;;;7.18;4.88;;;;;;;6.96;80.25;101068.25;8716247;33;20695;-76
2021/09/30 00:53:30;;;;;;;6.30;4.22;;;;;;;6.82;80.47;101076.13;8716568;33;20551;-75
2021/09/30 01:58:46;;;;;;;6.50;3.85;;;;;;;6.81;80.77;101101.13;8613949;33;20599;-75
2021/09/30 02:20:28;;;;;;;11.43;5.70;;;;;;;6.91;80.92;101113.06;8692398;33;20191;-75
2021/09/30 02:25:44;;;;;;;7.57;5.93;;;;;;;6.83;81.20;101117.94;8691738;33;20199;-76
2021/09/30 02:31:15;;;;;;;10.32;5.80;;;;;;;6.79;81.24;101124.38;8692864;33;20971;-76
2021/09/30 02:58:27;;;;;;;8.38;5.50;;;;;;;6.77;80.95;101135.13;8684637;33;20151;-76
2021/09/30 03:03:35;;;;;;;6.20;5.50;;;;;;;6.84;80.81;101133.00;8714876;33;20459;-75
2021/09/30 03:08:44;;;;;;;9.20;6.38;;;;;;;6.69;81.59;101137.34;8716146;33;20227;-75
2021/09/30 03:13:48;;;;;;;8.18;5.07;;;;;;;6.88;80.71;101147.06;8713979;33;20690;-76
2021/09/30 03:18:55;;;;;;;10.52;5.88;;;;;;;6.82;81.06;101142.88;8690669;33;20767;-75
2021/09/30 03:24:03;;;;;;;8.13;5.20;;;;;;;6.85;80.66;101150.72;8690381;33;20157;-75
2021/09/30 03:29:07;;;;;;;9.32;5.28;;;;;;;6.91;80.56;101155.81;8713591;33;20203;-76
2021/09/30 03:34:11;;;;;;;9.25;5.90;;;;;;;6.91;80.48;101157.59;8690356;33;20700;-74
2021/09/30 03:39:23;;;;;;;5.40;4.85;;;;;;;6.92;80.52;101159.34;8680193;33;20653;-75
2021/09/30 03:44:27;;;;;;;8.05;5.40;;;;;;;6.81;80.79;101171.41;8701288;33;20498;-75
2021/09/30 03:49:33;;;;;;;7.88;4.60;;;;;;;6.98;80.67;101154.50;8713865;33;20553;-75
2021/09/30 03:54:50;;;;;;;10.13;5.20;;;;;;;7.10;80.12;101168.16;8713310;33;20174;-76
2021/09/30 03:59:53;;;;;;;11.38;5.68;;;;;;;7.11;80.03;101168.09;8714367;33;20179;-76
2021/09/30 04:05:16;;;;;;;9.25;5.68;;;;;;;7.12;79.78;101163.59;8657013;33;20774;-75
2021/09/30 04:10:21;;;;;;;7.45;4.50;;;;;;;6.85;80.93;101186.31;8688263;33;20586;-76
2021/09/30 04:15:24;;;;;;;7.28;5.25;;;;;;;6.91;80.70;101192.31;8653327;33;20695;-74
2021/09/30 04:20:27;;;;;;;6.72;4.97;;;;;;;6.80;80.43;101203.53;8637188;33;20457;-76
2021/09/30 04:25:43;;;;;;;10.88;6.32;;;;;;;6.97;80.47;101202.69;8631524;33;20168;-76
2021/09/30 04:30:46;;;;;;;10.25;6.00;;;;;;;6.77;81.16;101220.56;8631987;33;20180;-75
2021/09/30 04:35:58;;;;;;;10.90;6.40;;;;;;;6.88;80.44;101224.53;8633786;33;20450;-76
2021/09/30 04:41:03;;;;;;;9.93;7.00;;;;;;;6.92;80.67;101224.28;8663450;33;20616;-76
2021/09/30 04:46:07;;;;;;;11.80;7.07;;;;;;;6.97;80.73;101224.91;8718062;33;20136;-75
2021/09/30 04:51:20;;;;;;;10.30;5.32;;;;;;;6.74;81.56;101231.41;8718152;33;20184;-75
2021/09/30 04:56:24;;;;;;;10.55;6.18;;;;;;;6.86;80.88;101237.94;8645871;33;20263;-74
2021/09/30 05:01:33;;;;;;;7.68;5.22;;;;;;;6.98;80.83;101231.97;8636819;33;20428;-75
2021/09/30 05:06:40;;;;;;;9.50;5.88;;;;;;;6.80;81.08;101246.25;8636691;33;20440;-75
2021/09/30 05:11:51;;;;;;;12.55;6.97;;;;;;;7.09;80.30;101239.44;8718119;33;20553;-75
2021/09/30 05:16:54;;;;;;;10.70;7.25;;;;;;;7.08;80.25;101244.88;8717247;33;20468;-76
2021/09/30 05:22:09;;;;;;;11.73;7.28;;;;;;;7.03;80.24;101248.63;8693965;33;21561;-75
2021/09/30 05:27:13;;;;;;;12.07;7.38;;;;;;;6.99;80.55;101259.56;8716782;33;20176;-74
2021/09/30 05:32:18;;;;;;;9.80;7.00;;;;;;;6.91;81.16;101264.44;8717198;33;20512;-75
2021/09/30 05:37:44;;;;;;;11.25;6.43;;;;;;;6.89;80.90;101272.53;8711018;33;20178;-75
2021/09/30 05:42:49;;;;;;;11.18;6.88;;;;;;;7.02;80.48;101270.97;8718695;33;20187;-76
2021/09/30 05:47:53;;;;;;;14.90;7.00;;;;;;;6.95;80.62;101264.19;8715945;33;20742;-75
2021/09/30 05:52:56;;;;;;;10.68;5.68;;;;;;;6.89;80.78;101275.22;8716145;33;20234;-75
2021/09/30 05:58:20;;;;;;;9.65;6.03;;;;;;;6.83;80.69;101289.72;8717802;33;20688;-75
2021/09/30 06:14:09;;;;;;;12.50;5.18;;;;;;;7.13;79.39;101298.91;8693093;33;20866;-74
2021/09/30 06:19:13;;;;;;;11.45;5.35;;;;;;;7.16;79.03;101296.06;8716166;33;20278;-74
2021/09/30 06:24:23;;;;;;;10.43;5.40;;;;;;;7.26;78.81;101295.50;8715699;33;20448;-73
2021/09/30 06:29:35;;;;;;;8.32;5.18;;;;;;;7.14;78.94;101295.31;8691088;33;20190;-75
2021/09/30 06:34:41;;;;;;;9.25;4.60;;;;;;;7.48;77.82;101311.28;8691431;33;20254;-73
2021/09/30 06:39:53;;;;;;;10.80;5.40;;;;;;;7.89;76.69;101299.28;8692174;33;20184;-74
2021/09/30 06:44:59;;;;;;;9.60;4.05;;;;;;;7.92;76.30;101310.66;8685294;33;20600;-73
2021/09/30 06:50:02;;;;;;;9.13;4.40;;;;;;;7.98;75.66;101316.63;8713595;33;20482;-74
2021/09/30 06:55:35;;;;;;;10.30;4.68;;;;;;;8.18;74.97;101319.94;8714289;33;20214;-74
2021/09/30 07:01:02;;;;;;;7.57;4.43;;;;;;;8.30;74.38;101333.56;8712737;33;20167;-74
2021/09/30 07:06:25;;;;;;;10.60;4.40;;;;;;;8.27;74.51;101326.59;8712361;33;20683;-74
2021/09/30 07:11:28;;;;;;;9.00;4.68;;;;;;;8.56;73.37;101316.06;8715427;33;20163;-74
2021/09/30 07:16:33;;;;;;;8.18;3.65;;;;;;;8.54;73.67;101339.38;8713721;33;20287;-75
2021/09/30 07:21:36;;;;;;;9.18;4.65;;;;;;;8.79;72.07;101338.84;8691422;33;21971;-73
2021/09/30 07:26:40;;;;;;;9.85;3.95;;;;;;;8.94;72.24;101326.34;8716578;33;20178;-74
2021/09/30 07:31:48;;;;;;;8.48;3.85;;;;;;;9.31;71.05;101338.41;8714602;33;20183;-75
2021/09/30 07:36:51;;;;;;;5.20;2.75;;;;;;;8.89;72.17;101337.34;8711057;33;20407;-74
2021/09/30 07:41:55;;;;;;;5.53;3.25;;;;;;;9.31;71.03;101349.13;8716557;33;20201;-74
2021/09/30 07:46:59;;;;;;;6.60;3.00;;;;;;;9.60;69.98;101342.00;8713883;33;20592;-75
2021/09/30 07:52:03;;;;;;;10.07;3.92;;;;;;;9.62;70.06;101333.84;8714888;33;20140;-75
2021/09/30 07:57:06;;;;;;;8.50;3.42;;;;;;;9.89;69.79;101352.75;8715363;33;21148;-75
2021/09/30 08:02:11;;;;;;;4.95;2.83;;;;;;;9.60;69.55;101355.41;8714980;33;20218;-75
2021/09/30 08:07:14;;;;;;;11.10;3.60;;;;;;;9.98;69.04;101356.69;8690630;33;20431;-75
2021/09/30 08:12:17;;;;;;;6.30;3.20;;;;;;;9.60;69.00;101359.88;8716554;33;20792;-75
2021/09/30 08:17:22;;;;;;;4.82;4.00;;;;;;;9.98;69.10;101362.03;8717656;33;20218;-74
2021/09/30 08:22:25;;;;;;;6.57;3.55;;;;;;;10.54;67.81;101360.25;8718488;33;20156;-73
2021/09/30 08:27:28;;;;;;;4.60;3.20;;;;;;;10.32;67.03;101352.72;8719604;33;20688;-74
2021/09/30 08:32:32;;;;;;;9.48;3.10;;;;;;;10.49;67.01;101365.91;8720048;33;20187;-74
2021/09/30 08:37:36;;;;;;;8.02;2.90;;;;;;;10.45;66.99;101363.50;8719732;33;20556;-74
2021/09/30 08:42:39;;;;;;;10.95;3.05;;;;;;;10.66;66.43;101364.78;8720501;33;20171;-74
2021/09/30 08:47:55;;;;;;;7.95;2.25;;;;;;;11.03;64.85;101363.22;8719883;33;20187;-75
2021/09/30 08:52:58;;;;;;;6.43;2.83;;;;;;;11.32;65.05;101359.53;8719141;33;20186;-74
2021/09/30 08:58:03;;;;;;;8.30;2.65;;;;;;;11.44;63.80;101356.00;8694707;33;20168;-71
2021/09/30 09:03:07;;;;;;;5.10;2.35;;;;;;;12.06;63.02;101356.06;8718917;33;20187;-74
2021/09/30 09:08:12;;;;;;;6.25;2.78;;;;;;;11.76;62.30;101355.56;8719834;33;20194;-74
2021/09/30 09:13:18;;;;;;;8.93;2.33;;;;;;;11.59;63.25;101370.22;8718979;33;20183;-74
2021/09/30 09:18:26;;;;;;;5.75;2.55;;;;;;;11.75;62.30;101368.16;8718849;33;20148;-74
2021/09/30 09:23:30;;;;;;;6.32;2.78;;;;;;;12.28;61.25;101363.47;8693694;33;20877;-74
2021/09/30 09:28:33;;;;;;;5.68;2.30;;;;;;;12.48;59.06;101353.97;8718914;33;20683;-74
2021/09/30 09:33:39;;;;;;;9.02;2.70;;;;;;;12.29;61.46;101377.84;8718832;33;20149;-75
2021/09/30 09:38:51;;;;;;;4.22;2.22;;;;;;;12.48;60.71;101355.75;8717679;33;20451;-74
2021/09/30 09:43:58;;;;;;;8.40;2.45;;;;;;;12.27;60.03;101363.56;8718695;33;20418;-74
2021/09/30 09:49:05;;;;;;;4.10;2.25;;;;;;;12.35;59.10;101364.75;8718470;33;20944;-74
2021/09/30 09:54:10;;;;;;;4.60;1.85;;;;;;;12.81;59.11;101363.19;8715713;33;20326;-75
2021/09/30 09:59:13;;;;;;;7.22;2.40;;;;;;;12.67;57.39;101331.00;8714235;33;20677;-73
2021/09/30 10:04:17;;;;;;;5.82;2.55;;;;;;;11.79;60.36;101371.50;8715680;33;20503;-75
2021/09/30 10:09:21;;;;;;;5.38;2.47;;;;;;;12.59;59.14;101372.88;8716241;33;20302;-75
2021/09/30 10:14:24;;;;;;;10.55;4.20;;;;;;;12.46;58.35;101363.13;8716507;33;20187;-75
2021/09/30 10:19:28;;;;;;;8.90;3.80;;;;;;;13.42;57.91;101366.63;8717910;33;20416;-75
2021/09/30 10:24:32;;;;;;;8.85;3.70;;;;;;;12.71;57.81;101364.84;8717870;33;20694;-74
2021/09/30 10:29:38;;;;;;;7.20;4.78;;;;;;;12.40;59.16;101372.53;8717531;33;20195;-75
2021/09/30 10:34:46;;;;;;;7.85;3.88;;;;;;;12.33;59.10;101366.69;8716682;33;20153;-74
2021/09/30 10:40:15;;;;;;;13.07;8.18;;;;;;;13.16;56.45;101376.69;8715879;33;20309;-74
2021/09/30 10:45:18;;;;;;;5.78;4.20;;;;;;;12.66;56.59;101345.47;8707105;33;20238;-73
2021/09/30 10:50:46;;;;;;;7.95;3.10;;;;;;;13.16;54.86;101343.47;8719215;33;20187;-74
2021/09/30 10:55:49;;;;;;;20.48;8.43;;;;;;;12.78;55.67;101353.50;8717323;33;20298;-74
2021/09/30 11:01:00;;;;;;;5.53;3.65;;;;;;;12.26;56.68;101351.06;8716922;33;20357;-75
2021/09/30 11:06:26;;;;;;;4.85;3.30;;;;;;;12.23;57.80;101352.16;8716918;33;20461;-74
2021/09/30 11:11:31;;;;;;;5.97;2.50;;;;;;;12.73;57.46;101371.00;8716112;33;20368;-74
2021/09/30 11:16:37;;;;;;;8.40;3.13;;;;;;;14.44;51.21;101350.47;8716146;33;20205;-74
2021/09/30 11:21:47;;;;;;;4.97;2.45;;;;;;;15.46;49.57;101355.34;8716498;33;20639;-74
2021/09/30 11:27:19;;;;;;;3.42;2.35;;;;;;;16.09;46.93;101373.34;8714408;33;22814;-74
2021/09/30 11:32:31;;;;;;;5.82;2.55;;;;;;;15.48;47.91;101360.66;8716430;33;20785;-74
2021/09/30 11:37:43;;;;;;;6.88;2.47;;;;;;;14.29;49.50;101366.94;8721699;33;20197;-74
2021/09/30 11:42:54;;;;;;;4.22;1.73;;;;;;;14.46;50.11;101362.03;8716052;33;20562;-74
2021/09/30 11:48:07;;;;;;;6.88;2.75;;;;;;;15.38;45.96;101365.13;8696113;33;20206;-74
2021/09/30 11:53:12;;;;;;;3.57;2.13;;;;;;;15.46;46.01;101360.75;8720690;33;20463;-74
2021/09/30 11:58:16;;;;;;;6.53;2.60;;;;;;;16.77;44.38;101349.16;8719523;33;20183;-74
2021/09/30 12:03:19;;;;;;;7.75;2.50;;;;;;;15.05;46.36;101348.91;8721346;33;20249;-74
2021/09/30 12:08:24;;;;;;;6.82;2.20;;;;;;;15.21;46.79;101353.88;8720797;33;20183;-74
2021/09/30 12:13:28;;;;;;;5.80;2.95;;;;;;;15.62;46.56;101345.91;8695617;33;20132;-74
2021/09/30 12:18:31;;;;;;;4.40;2.45;;;;;;;16.50;44.33;101339.84;8721091;33;20191;-74
2021/09/30 12:23:35;;;;;;;5.05;3.08;;;;;;;14.96;45.99;101338.00;8720078;33;20227;-74
2021/09/30 12:28:39;;;;;;;4.57;2.75;;;;;;;15.80;45.94;101355.13;8720188;33;20230;-74
2021/09/30 12:33:43;;;;;;;4.13;2.60;;;;;;;16.02;45.23;101331.56;8719946;33;20203;-74
2021/09/30 12:38:59;;;;;;;5.07;2.45;;;;;;;15.57;44.51;101332.75;8719890;33;21979;-75
2021/09/30 12:44:12;;;;;;;4.35;2.63;;;;;;;16.26;44.80;101323.06;8719981;33;20659;-75
2021/09/30 12:49:15;;;;;;;5.78;3.10;;;;;;;16.85;45.25;101316.75;8718343;33;20234;-75
2021/09/30 12:54:27;;;;;;;6.97;2.38;;;;;;;15.89;46.28;101315.53;8718876;33;20234;-74
2021/09/30 12:59:30;;;;;;;5.05;2.42;;;;;;;16.24;46.01;101314.22;8718688;33;20196;-74
2021/09/30 13:04:33;;;;;;;6.00;2.47;;;;;;;16.57;44.24;101315.75;8667664;33;20757;-75
2021/09/30 13:09:40;;;;;;;2.55;1.55;;;;;;;17.73;41.16;101311.19;8685533;33;20240;-76
2021/09/30 13:14:46;;;;;;;3.45;1.70;;;;;;;16.46;41.57;101305.03;8716073;33;20133;-75
2021/09/30 13:19:52;;;;;;;7.00;1.90;;;;;;;16.42;42.54;101307.13;8724960;33;20218;-74
2021/09/30 13:24:58;;;;;;;3.88;1.95;;;;;;;17.37;38.56;101303.72;8744629;33;20908;-74
2021/09/30 13:30:04;;;;;;;1.90;1.70;;;;;;;17.84;38.77;101289.25;8740495;33;20226;-74
2021/09/30 13:35:09;;;;;;;3.38;1.55;;;;;;;16.34;39.06;101296.13;8714981;33;20676;-74
2021/09/30 13:40:14;;;;;;;5.53;1.50;;;;;;;16.19;40.16;101295.66;8714002;33;20256;-74
2021/09/30 13:45:20;;;;;;;5.63;1.65;;;;;;;16.90;39.86;101281.03;8716782;33;20184;-74
2021/09/30 13:50:25;;;;;;;4.05;2.05;;;;;;;17.43;38.46;101272.41;8718458;33;20430;-74
2021/09/30 13:55:32;;;;;;;6.25;2.30;;;;;;;18.27;37.70;101266.88;8718121;33;20229;-74
2021/09/30 14:00:35;;;;;;;3.08;1.95;;;;;;;19.06;35.15;101248.03;8718244;33;20252;-75
2021/09/30 14:05:39;;;;;;;2.58;1.67;;;;;;;17.48;38.60;101259.22;8717808;33;20168;-74
2021/09/30 14:10:43;;;;;;;4.70;2.10;;;;;;;17.77;38.07;101256.41;8692164;33;20676;-74
2021/09/30 14:15:46;;;;;;;3.00;1.70;;;;;;;17.30;37.44;101256.41;8675079;33;20441;-74
2021/09/30 14:20:51;;;;;;;4.70;2.85;;;;;;;14.41;42.30;101256.97;8659683;33;20190;-74
2021/09/30 14:25:58;;;;;;;6.22;3.95;;;;;;;15.31;41.71;101252.94;8658545;33;21648;-73
2021/09/30 14:31:01;;;;;;;5.60;3.33;;;;;;;16.23;41.96;101250.13;8659523;33;20173;-73
2021/09/30 14:36:05;;;;;;;6.50;3.63;;;;;;;17.92;38.23;101227.69;8658747;33;20651;-74
2021/09/30 14:41:09;;;;;;;9.35;6.25;;;;;;;18.68;36.44;101229.19;8660673;33;20387;-74
2021/09/30 14:46:13;;;;;;;4.30;2.67;;;;;;;18.66;36.95;101223.03;8671041;33;20184;-73
2021/09/30 14:51:17;;;;;;;3.97;1.70;;;;;;;18.08;39.11;101223.50;8658621;33;20244;-74
2021/09/30 14:56:21;;;;;;;7.18;2.97;;;;;;;16.97;39.38;101225.16;8658155;33;20184;-74
2021/09/30 15:01:24;;;;;;;2.60;1.45;;;;;;;14.23;43.64;101231.44;8658450;33;20682;-73
2021/09/30 15:06:35;;;;;;;11.13;6.35;;;;;;;13.60;46.66;101226.66;8658075;33;20202;-74
2021/09/30 15:11:40;;;;;;;6.18;2.97;;;;;;;13.35;47.11;101233.09;8658585;33;20235;-74
2021/09/30 15:16:50;;;;;;;6.97;3.72;;;;;;;13.12;46.25;101229.53;8658134;33;20188;-74
2021/09/30 15:21:55;;;;;;;11.88;5.75;;;;;;;13.29;46.03;101236.31;8657524;33;20137;-76
2021/09/30 15:26:59;;;;;;;4.85;2.78;;;;;;;13.15;45.77;101225.75;8657344;33;20257;-74
2021/09/30 15:32:04;;;;;;;4.57;2.20;;;;;;;13.08;46.36;101222.66;8692462;33;20242;-76
2021/09/30 15:37:07;;;;;;;6.07;2.00;;;;;;;13.23;45.78;101216.06;8715080;33;20183;-74
2021/09/30 15:42:15;;;;;;;5.25;2.70;;;;;;;13.13;45.93;101215.06;8716513;33;20460;-74
2021/09/30 15:47:18;;;;;;;7.78;4.68;;;;;;;13.31;46.19;101214.59;8716283;33;20183;-74
2021/09/30 15:52:21;;;;;;;6.32;1.65;;;;;;;13.40;46.14;101205.81;8715696;33;20935;-74
2021/09/30 15:57:26;;;;;;;4.05;2.08;;;;;;;13.34;46.10;101212.53;8715093;33;20152;-74
2021/09/30 16:02:29;;;;;;;4.57;1.60;;;;;;;13.32;46.46;101192.88;8715755;33;20179;-74
2021/09/30 16:07:32;;;;;;;2.80;1.55;;;;;;;13.12;47.17;101201.72;8715611;33;20270;-74
2021/09/30 16:12:36;;;;;;;4.10;1.73;;;;;;;12.97;47.20;101201.06;8715597;33;21443;-74
2021/09/30 16:17:40;;;;;;;2.60;1.20;;;;;;;12.90;47.25;101197.16;8715362;33;20133;-74
2021/09/30 16:22:43;;;;;;;3.17;1.33;;;;;;;12.69;47.54;101195.13;8715203;33;20187;-74
2021/09/30 16:27:47;;;;;;;4.25;1.48;;;;;;;12.79;48.10;101192.59;8714513;33;20183;-75
2021/09/30 16:32:51;;;;;;;5.53;1.85;;;;;;;12.69;47.82;101194.28;8718018;33;21673;-74
2021/09/30 16:37:55;;;;;;;4.55;1.73;;;;;;;12.62;47.96;101188.50;8719620;33;20207;-74
2021/09/30 16:43:00;;;;;;;3.08;1.25;;;;;;;12.42;48.21;101208.03;8719530;33;20148;-73
2021/09/30 16:48:03;;;;;;;4.47;1.35;;;;;;;12.47;48.39;101185.13;8694364;33;20187;-74
2021/09/30 16:53:08;;;;;;;5.93;1.50;;;;;;;12.24;48.38;101191.41;8719058;33;20155;-74
2021/09/30 16:58:13;;;;;;;4.97;1.55;;;;;;;12.32;49.06;101184.47;8719355;33;20198;-73
2021/09/30 17:03:16;;;;;;;2.05;1.48;;;;;;;12.27;49.39;101191.16;8718944;33;20305;-74
2021/09/30 17:08:19;;;;;;;2.35;1.38;;;;;;;12.14;49.37;101189.38;8694749;33;20184;-74
2021/09/30 17:13:23;;;;;;;5.57;1.70;;;;;;;12.00;49.68;101186.84;8691559;33;20183;-74
2021/09/30 17:18:28;;;;;;;3.30;1.83;;;;;;;12.10;49.84;101187.03;8719443;33;20155;-73
2021/09/30 17:23:32;;;;;;;2.10;1.50;;;;;;;11.97;49.95;101184.41;8718352;33;20242;-74
2021/09/30 17:28:36;;;;;;;5.05;1.73;;;;;;;11.92;50.23;101181.19;8693666;33;20637;-74
2021/09/30 17:33:40;;;;;;;2.85;1.40;;;;;;;11.98;50.37;101178.03;8717372;33;20814;-75
2021/09/30 17:38:43;;;;;;;4.95;1.95;;;;;;;11.76;51.10;101168.00;8716493;33;20437;-76
2021/09/30 17:43:48;;;;;;;1.50;1.40;;;;;;;11.77;51.73;101166.19;8703139;33;20617;-76
2021/09/30 17:48:51;;;;;;;3.10;1.60;;;;;;;11.58;52.15;101166.66;8685608;33;20578;-76
2021/09/30 17:53:54;;;;;;;4.78;2.10;;;;;;;11.56;52.19;101166.78;8684943;33;20193;-74
2021/09/30 17:58:58;;;;;;;3.28;1.88;;;;;;;11.52;52.34;101164.41;8686683;33;20344;-75
2021/09/30 18:04:06;;;;;;;2.80;1.83;;;;;;;11.38;52.79;101158.22;8685381;33;20151;-74
2021/09/30 18:09:09;;;;;;;4.45;2.00;;;;;;;11.32;53.41;101166.72;8688053;33;20183;-75
2021/09/30 18:14:13;;;;;;;5.68;2.67;;;;;;;11.31;53.13;101164.16;8684846;33;20689;-75
2021/09/30 18:19:19;;;;;;;2.70;2.17;;;;;;;11.28;53.12;101167.91;8688412;33;20144;-75
2021/09/30 18:24:29;;;;;;;4.25;2.78;;;;;;;11.22;53.99;101163.84;8678849;33;20184;-75
2021/09/30 18:29:34;;;;;;;5.30;2.08;;;;;;;11.20;53.95;101160.38;8713146;33;20253;-75
2021/09/30 18:34:37;;;;;;;5.32;2.33;;;;;;;11.19;54.31;101163.16;8691515;33;20696;-75
2021/09/30 18:39:43;;;;;;;6.05;2.50;;;;;;;11.05;54.64;101167.69;8716556;33;20187;-75
2021/09/30 18:44:47;;;;;;;4.60;1.90;;;;;;;11.03;54.78;101169.63;8715743;33;20192;-76
2021/09/30 18:49:50;;;;;;;5.88;1.88;;;;;;;11.10;54.97;101171.88;8716330;33;20197;-76
2021/09/30 18:54:54;;;;;;;5.72;2.13;;;;;;;11.08;55.30;101168.41;8716579;33;20187;-76
2021/09/30 18:59:58;;;;;;;3.55;1.95;;;;;;;11.05;55.53;101173.06;8697839;33;20315;-75
2021/09/30 19:05:01;;;;;;;5.22;2.30;;;;;;;10.94;55.87;101169.41;8720587;33;20474;-75
2021/09/30 19:10:07;;;;;;;4.40;2.20;;;;;;;10.95;55.64;101169.31;8716547;33;21139;-75
2021/09/30 19:15:12;;;;;;;6.25;2.65;;;;;;;10.88;56.40;101165.31;8715299;33;20175;-75
2021/09/30 19:20:15;;;;;;;8.63;3.20;;;;;;;10.80;56.63;101171.22;8715227;33;20369;-76
2021/09/30 19:25:21;;;;;;;5.18;2.35;;;;;;;10.79;56.88;101163.28;8714791;33;22178;-75
2021/09/30 19:30:26;;;;;;;4.32;2.78;;;;;;;10.76;57.23;101153.59;8715703;33;20861;-75
2021/09/30 19:35:32;;;;;;;4.78;1.90;;;;;;;10.71;57.58;101149.50;8715166;33;20191;-76
2021/09/30 19:40:37;;;;;;;3.00;1.80;;;;;;;10.68;57.80;101155.97;8715300;33;20971;-76
2021/09/30 19:45:43;;;;;;;2.63;1.73;;;;;;;10.71;58.08;101152.19;8714413;33;20199;-77
2021/09/30 19:50:47;;;;;;;3.47;1.67;;;;;;;10.70;58.49;101153.19;8715333;33;20484;-75
2021/09/30 19:55:50;;;;;;;3.42;1.75;;;;;;;10.69;58.55;101149.59;8714845;33;20175;-75
2021/09/30 20:00:59;;;;;;;4.55;2.30;;;;;;;10.70;58.77;101150.50;8715069;33;20255;-75
2021/09/30 20:06:03;;;;;;;3.10;1.83;;;;;;;10.61;59.11;101139.41;8716591;33;20148;-76
2021/09/30 20:11:06;;;;;;;2.75;2.10;;;;;;;10.52;59.34;101142.72;8717737;33;20194;-76
2021/09/30 20:16:11;;;;;;;4.15;1.80;;;;;;;10.63;59.32;101138.44;8695261;33;20194;-75
2021/09/30 20:21:14;;;;;;;1.95;1.63;;;;;;;10.59;59.42;101149.41;8720403;33;20719;-75
2021/09/30 20:26:18;;;;;;;2.40;1.85;;;;;;;10.58;59.65;101133.38;8719271;33;20180;-75
2021/09/30 20:31:22;;;;;;;4.50;2.00;;;;;;;10.47;60.02;101135.94;8719845;33;20291;-75
2021/09/30 20:36:25;;;;;;;4.25;1.60;;;;;;;10.54;60.19;101123.81;8719352;33;21269;-75
2021/09/30 20:41:29;;;;;;;4.30;2.10;;;;;;;10.48;60.45;101133.16;8719994;33;20192;-75
2021/09/30 20:46:33;;;;;;;3.90;1.75;;;;;;;10.39;60.60;101126.59;8719592;33;21407;-75
2021/09/30 20:51:36;;;;;;;3.50;1.92;;;;;;;10.42;60.50;101130.03;8718900;33;20974;-75
2021/09/30 20:56:39;;;;;;;4.45;2.10;;;;;;;10.36;60.84;101132.16;8718909;33;20148;-75
2021/09/30 21:01:44;;;;;;;6.28;2.00;;;;;;;10.29;61.03;101113.91;8719324;33;20179;-75
2021/09/30 21:06:47;;;;;;;3.05;2.00;;;;;;;10.27;61.38;101113.16;8718686;33;20183;-75
2021/09/30 21:11:50;;;;;;;4.10;1.83;;;;;;;10.32;61.11;101111.88;8719472;33;20589;-75
2021/09/30 21:16:55;;;;;;;2.42;1.70;;;;;;;10.35;61.21;101108.09;8718857;33;20189;-74
2021/09/30 21:21:58;;;;;;;2.88;1.92;;;;;;;10.34;61.13;101098.34;8694351;33;20156;-75
2021/09/30 21:27:02;;;;;;;9.18;2.38;;;;;;;10.25;61.28;101101.66;8717759;33;20686;-75
2021/09/30 21:32:07;;;;;;;2.30;1.85;;;;;;;10.32;61.05;101086.84;8717705;33;20210;-75
2021/09/30 21:37:11;;;;;;;3.75;1.77;;;;;;;10.29;61.13;101095.13;8689513;33;20176;-75
2021/09/30 21:42:14;;;;;;;3.25;1.90;;;;;;;10.30;61.08;101088.75;8718496;33;20233;-74
2021/09/30 21:47:19;;;;;;;4.35;2.53;;;;;;;10.20;61.21;101099.25;8692868;33;20215;-75
2021/09/30 21:52:22;;;;;;;1.80;1.63;;;;;;;10.15;61.30;101080.81;8717340;33;20423;-75
2021/09/30 21:57:26;;;;;;;3.42;1.90;;;;;;;10.23;60.99;101074.03;8690949;33;20160;-75
2021/09/30 22:02:30;;;;;;;4.93;2.08;;;;;;;10.21;60.81;101060.72;8715661;33;20218;-75
2021/09/30 22:07:33;;;;;;;4.15;2.03;;;;;;;10.21;61.24;101063.41;8711745;33;20197;-75
2021/09/30 22:12:37;;;;;;;3.83;2.22;;;;;;;10.19;61.13;101061.78;8717372;33;20191;-75
2021/09/30 22:17:41;;;;;;;7.30;2.15;;;;;;;10.11;61.39;101056.94;8692184;33;20428;-75
2021/09/30 22:22:45;;;;;;;3.53;2.13;;;;;;;10.02;61.76;101049.53;8717403;33;20191;-75
2021/09/30 22:27:48;;;;;;;3.67;1.92;;;;;;;10.03;61.80;101048.56;8715752;33;20279;-75
2021/09/30 22:32:52;;;;;;;3.42;2.10;;;;;;;9.96;61.96;101042.75;8717397;33;20229;-75
2021/09/30 22:37:55;;;;;;;5.10;2.00;;;;;;;10.16;61.73;101036.88;8717282;33;20534;-75
2021/09/30 22:42:59;;;;;;;4.25;2.10;;;;;;;10.07;61.81;101042.88;8717520;33;20183;-75
2021/09/30 22:48:04;;;;;;;1.75;1.60;;;;;;;9.97;61.63;101032.88;8716885;33;20275;-74
2021/09/30 22:53:07;;;;;;;2.58;1.95;;;;;;;9.87;62.02;101028.16;8717079;33;20179;-75
2021/09/30 22:58:11;;;;;;;2.78;1.90;;;;;;;9.94;62.22;101034.78;8716544;33;20289;-75
2021/09/30 23:03:15;;;;;;;6.97;1.85;;;;;;;9.91;62.28;101029.63;8716303;33;20183;-75
2021/09/30 23:08:18;;;;;;;3.30;1.98;;;;;;;9.85;62.48;101021.13;8716982;33;20239;-75
2021/09/30 23:13:21;;;;;;;4.57;2.15;;;;;;;10.01;61.76;101023.63;8716302;33;20201;-74
2021/09/30 23:18:26;;;;;;;4.35;1.83;;;;;;;9.92;61.85;101014.41;8716429;33;20184;-75
2021/09/30 23:23:29;;;;;;;3.35;1.75;;;;;;;9.82;62.05;101021.31;8715895;33;20148;-74
2021/09/30 23:28:32;;;;;;;5.95;3.13;;;;;;;9.82;62.11;101015.94;8691145;33;20156;-74
2021/09/30 23:33:37;;;;;;;2.28;1.45;;;;;;;9.99;61.77;101010.34;8715433;33;21630;-75
2021/09/30 23:38:40;;;;;;;4.80;2.13;;;;;;;9.78;62.26;101020.66;8715377;33;20245;-75
2021/09/30 23:43:43;;;;;;;2.58;2.00;;;;;;;9.77;62.29;101010.06;8715693;33;20187;-75
2021/09/30 23:48:48;;;;;;;4.50;2.20;;;;;;;9.80;62.10;101008.00;8715652;33;20974;-75
2021/09/30 23:53:52;;;;;;;3.22;1.80;;;;;;;9.82;61.87;100999.84;8715488;33;20187;-75
2021/09/30 23:58:55;;;;;;;2.95;2.03;;;;;;;9.71;61.93;101001.44;8715216;33;20188;-75
